createdAt,value
2022-10-25T00:01:38.801Z,95838.63
2022-10-25T00:04:07.586Z,95841.30
2022-10-25T00:06:36.236Z,95841.86
2022-10-25T00:09:19.864Z,95841.30
2022-10-25T00:11:48.429Z,95839.75
2022-10-25T00:14:18.836Z,95847.09
2022-10-25T00:16:47.656Z,95841.86
2022-10-25T00:19:16.335Z,95848.31
2022-10-25T00:21:45.023Z,95845.50
2022-10-25T00:24:14.392Z,95842.27
2022-10-25T00:26:45.001Z,95844.22
2022-10-25T00:29:14.015Z,95844.88
2022-10-25T00:31:42.689Z,95853.50
2022-10-25T00:34:11.365Z,95854.36
2022-10-25T00:36:45.371Z,95852.02
2022-10-25T00:39:15.514Z,95849.77
2022-10-25T00:41:44.158Z,95844.52
2022-10-25T00:44:38.440Z,95836.64
2022-10-25T00:47:21.837Z,95836.78
2022-10-25T00:49:56.051Z,95834.78
2022-10-25T00:52:28.731Z,95831.77
2022-10-25T00:54:59.584Z,95831.36
2022-10-25T00:57:39.993Z,95826.34
2022-10-25T01:00:09.718Z,95829.56
2022-10-25T01:02:38.871Z,95830.53
2022-10-25T01:05:09.299Z,95821.00
2022-10-25T01:07:38.201Z,95819.20
2022-10-25T01:10:07.675Z,95815.83
2022-10-25T01:12:37.824Z,95821.91
2022-10-25T01:15:07.390Z,95815.61
2022-10-25T01:17:58.860Z,95817.66
2022-10-25T01:20:47.345Z,95815.98
2022-10-25T01:23:24.713Z,95825.55
2022-10-25T01:26:13.104Z,95823.87
2022-10-25T01:28:50.478Z,95827.28
2022-10-25T01:31:38.798Z,95814.27
2022-10-25T01:34:19.528Z,95819.48
2022-10-25T01:36:53.634Z,95811.42
2022-10-25T01:39:28.207Z,95816.27
2022-10-25T01:42:05.476Z,95812.59
2022-10-25T01:45:06.148Z,95810.11
2022-10-25T01:47:40.580Z,95805.18
2022-10-25T01:50:14.942Z,95801.05
2022-10-25T01:52:43.564Z,95808.30
2022-10-25T01:55:14.996Z,95806.93
2022-10-25T01:57:55.332Z,95803.55
2022-10-25T02:00:25.799Z,95799.51
2022-10-25T02:03:24.224Z,95800.00
2022-10-25T02:06:19.761Z,95795.83
2022-10-25T02:09:00.029Z,95803.41
2022-10-25T02:11:31.742Z,95802.73
2022-10-25T02:14:23.703Z,95795.88
2022-10-25T02:17:17.800Z,95795.52
2022-10-25T02:19:49.460Z,95794.05
2022-10-25T02:22:20.805Z,95799.03
2022-10-25T02:24:51.391Z,95795.00
2022-10-25T02:27:23.213Z,95793.75
2022-10-25T02:29:53.564Z,95789.16
2022-10-25T02:32:22.870Z,95799.17
2022-10-25T02:34:52.120Z,95795.35
2022-10-25T02:37:20.902Z,95791.09
2022-10-25T02:39:51.421Z,95792.73
2022-10-25T02:42:22.782Z,95790.62
2022-10-25T02:44:51.576Z,95785.91
2022-10-25T02:47:24.310Z,95799.98
2022-10-25T02:50:33.595Z,95796.55
2022-10-25T02:53:04.257Z,95794.80
2022-10-25T02:56:18.722Z,95802.91
2022-10-25T02:58:49.291Z,95801.16
2022-10-25T03:01:23.356Z,95794.52
2022-10-25T03:03:52.694Z,95792.27
2022-10-25T03:06:21.342Z,95790.48
2022-10-25T03:09:13.638Z,95788.55
2022-10-25T03:11:42.399Z,95789.49
2022-10-25T03:14:16.849Z,95789.70
2022-10-25T03:16:45.432Z,95785.69
2022-10-25T03:19:14.480Z,95790.58
2022-10-25T03:21:43.248Z,95788.41
2022-10-25T03:24:11.967Z,95795.53
2022-10-25T03:26:40.612Z,95788.11
2022-10-25T03:29:09.232Z,95796.22
2022-10-25T03:31:38.001Z,95796.06
2022-10-25T03:34:06.567Z,95790.42
2022-10-25T03:36:35.265Z,95797.53
2022-10-25T03:39:06.587Z,95793.27
2022-10-25T03:41:35.118Z,95793.05
2022-10-25T03:44:03.785Z,95790.85
2022-10-25T03:46:35.530Z,95788.97
2022-10-25T03:49:04.189Z,95787.82
2022-10-25T03:51:32.911Z,95785.84
2022-10-25T03:54:04.535Z,95780.52
2022-10-25T03:56:33.137Z,95786.05
2022-10-25T03:59:01.824Z,95780.23
2022-10-25T04:01:30.756Z,95778.56
2022-10-25T04:03:59.375Z,95780.09
2022-10-25T04:06:28.080Z,95778.41
2022-10-25T04:08:58.719Z,95782.61
2022-10-25T04:11:27.331Z,95784.84
2022-10-25T04:13:55.906Z,95782.97
2022-10-25T04:16:25.709Z,95780.53
2022-10-25T04:18:58.068Z,95782.06
2022-10-25T04:21:27.433Z,95779.75
2022-10-25T04:23:58.253Z,95775.90
2022-10-25T04:26:26.483Z,95781.66
2022-10-25T04:28:56.931Z,95787.30
2022-10-25T04:31:25.759Z,95784.11
2022-10-25T04:33:56.124Z,95789.84
2022-10-25T04:36:25.264Z,95790.11
2022-10-25T04:38:54.702Z,95804.74
2022-10-25T04:41:23.921Z,95806.07
2022-10-25T04:43:53.197Z,95804.83
2022-10-25T04:46:22.164Z,95799.41
2022-10-25T04:48:52.431Z,95795.51
2022-10-25T04:51:22.759Z,95795.14
2022-10-25T04:53:54.350Z,95800.67
2022-10-25T04:56:23.786Z,95800.94
2022-10-25T04:58:52.529Z,95800.02
2022-10-25T05:01:21.256Z,95807.58
2022-10-25T05:03:50.079Z,95806.68
2022-10-25T05:06:25.478Z,95798.69
2022-10-25T05:08:54.865Z,95802.02
2022-10-25T05:11:25.511Z,95800.47
2022-10-25T05:14:01.507Z,95803.72
2022-10-25T05:16:31.933Z,95810.48
2022-10-25T05:19:03.684Z,95802.08
2022-10-25T05:21:32.496Z,95801.70
2022-10-25T05:24:02.667Z,95802.44
2022-10-25T05:26:33.750Z,95800.63
2022-10-25T05:29:04.571Z,95810.95
2022-10-25T05:31:32.976Z,95812.16
2022-10-25T05:34:05.411Z,95818.01
2022-10-25T05:36:34.334Z,95820.84
2022-10-25T05:39:32.441Z,95823.16
2022-10-25T05:42:06.814Z,95836.25
2022-10-25T05:44:35.455Z,95837.41
2022-10-25T05:47:06.167Z,95842.59
2022-10-25T05:49:40.488Z,95841.84
2022-10-25T05:52:09.906Z,95776.03
2022-10-25T05:54:38.585Z,95854.21
2022-10-25T05:57:07.448Z,95862.65
2022-10-25T05:59:36.277Z,95869.98
2022-10-25T06:02:05.180Z,95863.11
2022-10-25T06:04:36.935Z,95870.56
2022-10-25T06:07:07.185Z,95868.52
2022-10-25T06:09:40.271Z,95874.02
2022-10-25T06:12:09.695Z,95870.25
2022-10-25T06:14:38.602Z,95878.19
2022-10-25T06:17:10.466Z,95874.82
2022-10-25T06:19:39.397Z,95872.94
2022-10-25T06:22:11.315Z,95871.89
2022-10-25T06:24:42.228Z,95861.44
2022-10-25T06:27:11.016Z,95873.36
2022-10-25T06:29:46.272Z,95870.32
2022-10-25T06:32:18.010Z,95867.98
2022-10-25T06:34:52.780Z,95870.45
2022-10-25T06:37:29.481Z,95868.95
2022-10-25T06:40:04.432Z,95876.59
2022-10-25T06:42:46.091Z,95875.09
2022-10-25T06:45:21.885Z,95882.14
2022-10-25T06:47:57.269Z,95879.75
2022-10-25T06:50:27.587Z,95887.40
2022-10-25T06:52:56.333Z,95884.02
2022-10-25T06:55:25.028Z,95879.53
2022-10-25T06:57:56.730Z,95887.13
2022-10-25T07:00:30.539Z,95887.39
2022-10-25T07:03:00.749Z,95882.45
2022-10-25T07:05:29.636Z,95886.72
2022-10-25T07:08:00.159Z,95874.12
2022-10-25T07:10:31.003Z,95874.78
2022-10-25T07:12:59.721Z,95878.74
2022-10-25T07:15:28.356Z,95881.36
2022-10-25T07:17:57.118Z,95838.48
2022-10-25T07:20:25.639Z,95873.70
2022-10-25T07:23:00.145Z,95867.14
2022-10-25T07:25:29.347Z,95793.89
2022-10-25T07:27:58.486Z,95868.19
2022-10-25T07:30:27.456Z,95864.43
2022-10-25T07:32:56.241Z,95862.47
2022-10-25T07:35:27.260Z,95860.56
2022-10-25T07:37:55.864Z,95859.05
2022-10-25T07:40:24.482Z,95865.55
2022-10-25T07:42:53.163Z,95855.61
2022-10-25T07:45:24.405Z,95780.20
2022-10-25T07:47:53.271Z,95866.66
2022-10-25T07:50:21.889Z,95860.82
2022-10-25T07:52:50.894Z,95859.95
2022-10-25T07:55:19.645Z,95864.23
2022-10-25T07:57:48.632Z,95852.56
2022-10-25T08:00:17.869Z,95838.80
2022-10-25T08:02:46.597Z,95837.45
2022-10-25T08:05:16.798Z,95845.92
2022-10-25T08:07:47.258Z,95842.45
2022-10-25T08:10:17.475Z,95848.42
2022-10-25T08:12:48.015Z,95843.63
2022-10-25T08:15:18.304Z,95849.38
2022-10-25T08:17:47.271Z,95849.94
2022-10-25T08:20:16.082Z,95846.23
2022-10-25T08:22:44.754Z,95839.87
2022-10-25T08:25:16.234Z,95835.88
2022-10-25T08:27:45.163Z,95830.03
2022-10-25T08:30:13.948Z,95828.34
2022-10-25T08:32:42.639Z,95828.44
2022-10-25T08:35:14.493Z,95832.41
2022-10-25T08:37:43.458Z,95832.23
2022-10-25T08:40:24.724Z,95829.20
2022-10-25T08:43:08.459Z,95823.02
2022-10-25T08:45:49.269Z,95819.70
2022-10-25T08:48:21.046Z,95824.38
2022-10-25T08:50:52.648Z,95817.27
2022-10-25T08:53:33.197Z,95805.80
2022-10-25T08:56:16.160Z,95806.67
2022-10-25T08:58:39.665Z,95803.61
2022-10-25T09:01:23.480Z,95801.59
2022-10-25T09:03:52.333Z,95793.27
2022-10-25T09:06:43.813Z,95797.62
2022-10-25T09:09:18.801Z,95790.14
2022-10-25T09:12:08.463Z,95787.38
2022-10-25T09:14:57.559Z,95790.20
2022-10-25T09:17:29.212Z,95791.94
2022-10-25T09:20:21.676Z,95759.30
2022-10-25T09:23:09.603Z,95794.37
2022-10-25T09:26:12.026Z,95790.55
2022-10-25T09:29:08.742Z,95723.08
2022-10-25T09:31:45.104Z,95789.59
2022-10-25T09:34:16.051Z,95784.81
2022-10-25T09:36:47.801Z,95784.06
2022-10-25T09:39:28.095Z,95772.76
2022-10-25T09:41:59.615Z,95775.69
2022-10-25T09:44:49.314Z,95765.62
2022-10-25T09:47:40.427Z,95764.91
2022-10-25T09:50:14.582Z,95753.98
2022-10-25T09:53:16.447Z,95752.98
2022-10-25T09:55:59.333Z,95748.98
2022-10-25T09:58:35.391Z,95749.94
2022-10-25T10:01:08.851Z,95746.47
2022-10-25T10:03:38.259Z,95742.36
2022-10-25T10:06:18.997Z,95739.03
2022-10-25T10:08:53.492Z,95735.53
2022-10-25T10:11:23.017Z,95729.18
2022-10-25T10:13:57.456Z,95726.55
2022-10-25T10:16:30.600Z,95720.25
2022-10-25T10:19:21.128Z,95721.13
2022-10-25T10:21:59.185Z,95717.12
2022-10-25T10:24:33.626Z,95707.48
2022-10-25T10:27:05.004Z,95706.03
2022-10-25T10:29:37.019Z,95706.39
2022-10-25T10:32:13.648Z,95702.59
2022-10-25T10:34:48.971Z,95698.48
2022-10-25T10:37:20.354Z,95692.16
2022-10-25T10:40:01.353Z,95680.88
2022-10-25T10:42:38.050Z,95670.50
2022-10-25T10:45:15.747Z,95678.00
2022-10-25T10:47:47.390Z,95672.45
2022-10-25T10:50:25.804Z,95667.54
2022-10-25T10:53:06.879Z,95666.13
2022-10-25T10:55:50.790Z,95674.41
2022-10-25T10:58:25.631Z,95674.02
2022-10-25T11:00:57.224Z,95661.95
2022-10-25T11:03:48.717Z,95659.77
2022-10-25T11:06:19.799Z,95659.84
2022-10-25T11:08:49.977Z,95655.09
2022-10-25T11:11:23.882Z,95651.10
2022-10-25T11:13:59.943Z,95648.39
2022-10-25T11:16:53.901Z,95642.40
2022-10-25T11:19:39.302Z,95641.30
2022-10-25T11:22:23.093Z,95640.09
2022-10-25T11:25:59.693Z,95630.69
2022-10-25T11:28:37.261Z,95624.50
2022-10-25T11:31:17.882Z,95622.79
2022-10-25T11:34:09.958Z,95620.56
2022-10-25T11:36:57.404Z,95610.28
2022-10-25T11:39:56.108Z,95607.34
2022-10-25T11:42:39.925Z,95601.27
2022-10-25T11:45:20.312Z,95594.16
2022-10-25T11:48:16.106Z,95589.36
2022-10-25T11:51:02.813Z,95588.48
2022-10-25T11:53:55.478Z,95582.98
2022-10-25T11:56:54.286Z,95579.67
2022-10-25T11:59:30.273Z,95573.17
2022-10-25T12:02:35.378Z,95573.88
2022-10-25T12:05:23.360Z,95571.22
2022-10-25T12:14:02.287Z,95513.31
2022-10-25T12:16:51.278Z,95568.95
2022-10-25T12:26:03.358Z,95559.27
2022-10-25T12:28:35.457Z,95555.80
2022-10-25T12:31:09.679Z,95558.59
2022-10-25T12:44:10.368Z,95562.14
2022-10-25T12:46:44.856Z,95563.95
2022-10-25T12:49:50.631Z,95560.24
2022-10-25T12:52:31.047Z,95562.23
2022-10-25T12:55:17.395Z,95567.52
2022-10-25T12:58:10.961Z,95565.39
2022-10-25T13:00:50.922Z,95566.31
2022-10-25T13:03:30.137Z,95563.00
2022-10-25T13:06:33.320Z,95568.81
2022-10-25T13:09:10.997Z,95569.56
2022-10-25T13:11:48.488Z,95563.16
2022-10-25T13:14:31.857Z,95566.91
2022-10-25T13:17:28.105Z,95558.37
2022-10-25T13:20:16.245Z,95564.42
2022-10-25T13:22:54.158Z,95563.78
2022-10-25T13:25:39.500Z,95560.65
2022-10-25T13:28:22.789Z,95553.59
2022-10-25T13:30:59.465Z,95486.83
2022-10-25T13:34:01.461Z,95555.45
2022-10-25T13:36:54.923Z,95557.87
2022-10-25T13:39:41.560Z,95557.73
2022-10-25T13:42:31.783Z,95556.82
2022-10-25T13:45:10.060Z,95550.17
2022-10-25T13:47:48.347Z,95554.74
2022-10-25T13:50:22.864Z,95556.82
2022-10-25T13:53:22.727Z,95554.86
2022-10-25T13:56:10.353Z,95483.97
2022-10-25T13:58:58.651Z,95546.11
2022-10-25T14:05:01.328Z,95555.79
2022-10-25T14:07:47.955Z,95549.88
2022-10-25T14:11:06.903Z,95550.48
2022-10-25T14:13:13.498Z,95549.13
2022-10-25T14:15:50.939Z,95546.52
2022-10-25T14:18:28.916Z,95549.08
2022-10-25T14:21:07.564Z,95546.11
2022-10-25T14:23:48.538Z,95542.28
2022-10-25T14:26:13.768Z,95544.89
2022-10-25T14:28:45.691Z,95540.81
2022-10-25T14:31:17.447Z,95541.91
2022-10-25T14:33:54.711Z,95545.72
2022-10-25T14:36:36.567Z,95541.11
2022-10-25T14:39:07.785Z,95542.00
2022-10-25T14:41:45.501Z,95545.19
2022-10-25T14:44:31.581Z,95539.88
2022-10-25T14:47:02.554Z,95539.46
2022-10-25T14:49:41.045Z,95544.33
2022-10-25T14:52:12.579Z,95543.41
2022-10-25T14:54:59.367Z,95542.05
2022-10-25T14:57:33.458Z,95536.81
2022-10-25T15:00:04.763Z,95542.25
2022-10-25T15:05:55.427Z,95535.30
2022-10-25T15:08:27.155Z,95533.12
2022-10-25T15:11:08.090Z,95531.50
2022-10-25T15:13:42.043Z,95533.72
2022-10-25T15:16:38.597Z,95531.59
2022-10-25T15:19:15.484Z,95534.59
2022-10-25T15:21:48.379Z,95535.66
2022-10-25T15:24:22.803Z,95538.69
2022-10-25T15:27:00.792Z,95529.58
2022-10-25T15:29:45.489Z,95536.73
2022-10-25T15:32:17.162Z,95496.14
2022-10-25T15:34:48.685Z,95544.22
2022-10-25T15:37:21.471Z,95546.84
2022-10-25T15:39:52.515Z,95551.91
2022-10-25T15:42:23.020Z,95550.13
2022-10-25T15:44:56.337Z,95552.56
2022-10-25T15:47:33.940Z,95562.42
2022-10-25T15:50:05.690Z,95564.25
2022-10-25T15:52:37.540Z,95576.23
2022-10-25T15:55:13.725Z,95571.67
2022-10-25T15:57:42.374Z,95578.09
2022-10-25T16:00:22.799Z,95584.49
2022-10-25T16:02:53.862Z,95582.38
2022-10-25T16:05:32.089Z,95574.69
2022-10-25T16:08:00.801Z,95574.34
2022-10-25T16:10:34.833Z,95575.42
2022-10-25T16:13:06.582Z,95571.84
2022-10-25T16:15:36.834Z,95575.44
2022-10-25T16:18:05.921Z,95565.46
2022-10-25T16:20:34.668Z,95579.84
2022-10-25T16:23:03.435Z,95574.53
2022-10-25T16:25:33.148Z,95575.71
2022-10-25T16:28:04.854Z,95578.41
2022-10-25T16:30:35.852Z,95585.47
2022-10-25T16:33:04.924Z,95582.25
2022-10-25T16:35:35.112Z,95588.84
2022-10-25T16:38:06.553Z,95587.61
2022-10-25T16:40:35.538Z,95595.83
2022-10-25T16:43:10.901Z,95597.02
2022-10-25T16:45:42.632Z,95595.12
2022-10-25T16:48:12.844Z,95598.16
2022-10-25T16:51:16.760Z,95595.46
2022-10-25T16:53:56.527Z,95601.58
2022-10-25T16:57:11.883Z,95605.30
2022-10-25T17:00:01.497Z,95608.17
2022-10-25T17:02:32.741Z,95606.23
2022-10-25T17:05:05.171Z,95607.53
2022-10-25T17:07:42.010Z,95607.53
2022-10-25T17:13:35.216Z,95608.41
2022-10-25T17:16:08.705Z,95537.48
2022-10-25T17:18:38.600Z,95605.47
2022-10-25T17:21:10.070Z,95612.09
2022-10-25T17:23:40.459Z,95615.27
2022-10-25T17:26:11.605Z,95618.08
2022-10-25T17:28:45.230Z,95618.12
2022-10-25T17:31:16.227Z,95618.36
2022-10-25T17:33:47.666Z,95616.91
2022-10-25T17:36:18.615Z,95612.86
2022-10-25T17:38:52.736Z,95612.61
2022-10-25T17:41:22.815Z,95616.58
2022-10-25T17:43:56.704Z,95618.45
2022-10-25T17:46:29.131Z,95612.88
2022-10-25T17:49:04.560Z,95610.77
2022-10-25T17:51:34.721Z,95617.00
2022-10-25T17:54:05.687Z,95617.87
2022-10-25T17:56:37.270Z,95618.79
2022-10-25T17:59:07.910Z,95623.31
2022-10-25T18:01:50.724Z,95626.70
2022-10-25T18:04:06.902Z,95625.87
2022-10-25T18:06:38.696Z,95626.83
2022-10-25T18:09:11.656Z,95630.47
2022-10-25T18:11:40.326Z,95638.27
2022-10-25T18:14:09.159Z,95643.70
2022-10-25T18:16:38.700Z,95651.65
2022-10-25T18:19:07.657Z,95654.91
2022-10-25T18:21:37.907Z,95653.94
2022-10-25T18:24:06.990Z,95660.40
2022-10-25T18:26:37.879Z,95660.16
2022-10-25T18:29:07.597Z,95662.63
2022-10-25T18:31:37.116Z,95666.99
2022-10-25T18:34:05.764Z,95669.09
2022-10-25T18:36:34.361Z,95666.34
2022-10-25T18:39:02.979Z,95667.66
2022-10-25T18:41:35.326Z,95668.58
2022-10-25T18:44:15.057Z,95672.31
2022-10-25T18:46:44.140Z,95665.78
2022-10-25T18:49:15.781Z,95664.50
2022-10-25T18:51:51.678Z,95668.34
2022-10-25T18:54:20.518Z,95667.27
2022-10-25T18:57:03.819Z,95667.38
2022-10-25T18:59:24.074Z,95676.27
2022-10-25T19:01:53.158Z,95675.05
2022-10-25T19:04:21.863Z,95675.45
2022-10-25T19:06:53.798Z,95680.86
2022-10-25T19:09:26.343Z,95680.97
2022-10-25T19:11:55.276Z,95684.84
2022-10-25T19:14:30.197Z,95688.23
2022-10-25T19:16:58.865Z,95687.87
2022-10-25T19:19:29.217Z,95703.27
2022-10-25T19:21:58.723Z,95692.63
2022-10-25T19:24:27.370Z,95696.00
2022-10-25T19:26:57.975Z,95696.73
2022-10-25T19:29:26.569Z,95694.31
2022-10-25T19:31:57.977Z,95690.44
2022-10-25T19:34:26.731Z,95692.96
2022-10-25T19:36:56.750Z,95700.65
2022-10-25T19:39:29.207Z,95704.48
2022-10-25T19:41:57.791Z,95707.08
2022-10-25T19:44:28.613Z,95716.51
2022-10-25T19:46:58.761Z,95720.64
2022-10-25T19:49:30.079Z,95716.59
2022-10-25T19:51:58.755Z,95725.75
2022-10-25T19:54:28.637Z,95720.40
2022-10-25T19:56:57.210Z,95724.44
2022-10-25T19:59:26.304Z,95729.23
2022-10-25T20:01:55.121Z,95731.93
2022-10-25T20:04:23.945Z,95739.69
2022-10-25T20:06:52.969Z,95738.16
2022-10-25T20:09:22.135Z,95739.36
2022-10-25T20:11:53.127Z,95739.94
2022-10-25T20:14:21.746Z,95750.58
2022-10-25T20:16:50.763Z,95755.69
2022-10-25T20:19:21.097Z,95754.00
2022-10-25T20:21:51.753Z,95754.61
2022-10-25T20:24:20.508Z,95762.08
2022-10-25T20:26:53.955Z,95761.94
2022-10-25T20:29:24.735Z,95755.63
2022-10-25T20:31:54.140Z,95755.19
2022-10-25T20:34:25.670Z,95754.39
2022-10-25T20:36:54.325Z,95758.66
2022-10-25T20:39:24.478Z,95759.23
2022-10-25T20:41:55.671Z,95762.33
2022-10-25T20:47:06.484Z,95701.30
2022-10-25T20:49:44.179Z,95769.03
2022-10-25T20:52:12.916Z,95770.20
2022-10-25T20:54:41.589Z,95774.71
2022-10-25T20:57:10.279Z,95774.71
2022-10-25T20:59:40.998Z,95774.90
2022-10-25T21:02:11.375Z,95778.96
2022-10-25T21:04:53.439Z,95777.64
2022-10-25T21:07:13.027Z,95777.43
2022-10-25T21:09:50.622Z,95775.58
2022-10-25T21:12:19.238Z,95780.38
2022-10-25T21:14:47.753Z,95776.92
2022-10-25T21:17:18.073Z,95772.28
2022-10-25T21:19:49.609Z,95771.52
2022-10-25T21:22:18.348Z,95770.38
2022-10-25T21:24:48.617Z,95778.41
2022-10-25T21:27:17.383Z,95772.86
2022-10-25T21:29:46.145Z,95780.17
2022-10-25T21:32:14.871Z,95783.63
2022-10-25T21:34:43.526Z,95778.80
2022-10-25T21:37:12.258Z,95790.93
2022-10-25T21:39:42.314Z,95780.77
2022-10-25T21:42:11.973Z,95788.64
2022-10-25T21:44:40.988Z,95786.73
2022-10-25T21:47:09.717Z,95787.72
2022-10-25T21:49:38.446Z,95787.50
2022-10-25T21:52:07.160Z,95789.06
2022-10-25T21:54:35.826Z,95787.15
2022-10-25T21:57:07.281Z,95782.14
2022-10-25T21:59:35.877Z,95780.61
2022-10-25T22:02:04.856Z,95782.17
2022-10-25T22:04:34.189Z,95781.78
2022-10-25T22:07:02.830Z,95780.43
2022-10-25T22:09:33.103Z,95782.16
2022-10-25T22:12:02.538Z,95785.25
2022-10-25T22:14:31.167Z,95787.16
2022-10-25T22:16:59.931Z,95786.37
2022-10-25T22:19:31.225Z,95784.66
2022-10-25T22:22:01.981Z,95782.92
2022-10-25T22:24:30.509Z,95786.77
2022-10-25T22:26:59.230Z,95778.15
2022-10-25T22:29:27.965Z,95782.54
2022-10-25T22:31:59.578Z,95785.63
2022-10-25T22:34:29.282Z,95780.83
2022-10-25T22:37:01.472Z,95779.47
2022-10-25T22:39:33.220Z,95782.14
2022-10-25T22:42:03.174Z,95791.15
2022-10-25T22:44:31.689Z,95787.85
2022-10-25T22:47:00.367Z,95791.89
2022-10-25T22:49:31.588Z,95796.09
2022-10-25T22:52:00.249Z,95792.82
2022-10-25T22:54:30.656Z,95795.67
2022-10-25T22:57:00.887Z,95796.23
2022-10-25T22:59:29.420Z,95798.17
2022-10-25T23:01:59.488Z,95794.53
2022-10-25T23:04:29.352Z,95796.20
2022-10-25T23:06:59.922Z,95794.27
2022-10-25T23:09:28.664Z,95797.95
2022-10-25T23:11:57.347Z,95800.45
2022-10-25T23:14:26.043Z,95800.02
2022-10-25T23:16:54.822Z,95799.49
2022-10-25T23:19:23.514Z,95803.55
2022-10-25T23:21:52.229Z,95811.38
2022-10-25T23:24:20.907Z,95807.61
2022-10-25T23:26:49.433Z,95817.61
2022-10-25T23:29:18.071Z,95815.70
2022-10-25T23:31:46.683Z,95822.61
2022-10-25T23:34:15.307Z,95825.47
2022-10-25T23:36:44.006Z,95828.52
2022-10-25T23:39:12.670Z,95828.33
2022-10-25T23:41:41.371Z,95829.23
2022-10-25T23:44:10.054Z,95831.13
2022-10-25T23:46:38.735Z,95828.77
2022-10-25T23:49:08.827Z,95828.61
2022-10-25T23:51:37.473Z,95827.68
2022-10-25T23:54:07.713Z,95835.55
2022-10-25T23:56:39.601Z,95836.91
2022-10-25T23:59:08.289Z,95840.94
